Dno, Russia
Current Conditions -  °F | °C
As of 9:00 AM on Friday 31 Oct 2014 (Local Time) from ULOO Reporting Station
Haze Haze  
Wind Chill: 32°   Ceiling: 1100
Heat Index: 37°   Visibility: 2.5mi
Dew Point: 37°   Wind: 7mph
Humidity: 100%   Direction: 240°WSW
Pressure: 30.15"   Gusts: NA
Location:  57.83°N, 29.98°E
Report Text: ULOO 310600Z 24003MPS 4000 BR OVC011 03/03 Q1021 19190060 NOSIGRMK QFE761
Loading
Personal Weather Stations






























Interactive Weather Map
Tropical Storm Tracking
New forecast layout! Learn more

10-Day Weather Forecast

Advertisements
Track Severe Weather on mobile